createdAt,value
2022-12-11T00:00:54.641Z,1.20
2022-12-11T00:03:22.012Z,1.30
2022-12-11T00:05:49.601Z,1.30
2022-12-11T00:08:17.116Z,1.30
2022-12-11T00:10:49.774Z,1.30
2022-12-11T00:13:17.428Z,1.30
2022-12-11T00:15:44.806Z,1.40
2022-12-11T00:18:14.820Z,1.40
2022-12-11T00:20:42.481Z,1.30
2022-12-11T00:23:10.988Z,1.30
2022-12-11T00:25:44.283Z,1.30
2022-12-11T00:28:13.585Z,1.30
2022-12-11T00:30:42.573Z,1.30
2022-12-11T00:33:11.053Z,1.30
2022-12-11T00:35:41.280Z,1.40
2022-12-11T00:38:09.194Z,1.40
2022-12-11T00:40:37.444Z,1.50
2022-12-11T00:43:05.035Z,1.40
2022-12-11T00:45:35.747Z,1.40
2022-12-11T00:48:03.155Z,1.30
2022-12-11T00:50:30.701Z,1.30
2022-12-11T00:52:58.018Z,1.40
2022-12-11T00:55:25.673Z,1.40
2022-12-11T00:57:53.212Z,1.40
2022-12-11T01:00:20.909Z,1.40
2022-12-11T01:02:48.424Z,1.40
2022-12-11T01:05:16.238Z,1.30
2022-12-11T01:07:43.621Z,1.30
2022-12-11T01:10:28.642Z,1.30
2022-12-11T01:13:00.009Z,1.40
2022-12-11T01:15:30.283Z,1.40
2022-12-11T01:17:58.103Z,1.30
2022-12-11T01:20:27.893Z,1.40
2022-12-11T01:22:57.305Z,1.30
2022-12-11T01:25:25.248Z,1.30
2022-12-11T01:27:54.292Z,1.40
2022-12-11T01:30:23.361Z,1.30
2022-12-11T01:32:50.848Z,1.30
2022-12-11T01:35:18.986Z,1.50
2022-12-11T01:37:46.745Z,1.50
2022-12-11T01:40:16.381Z,1.50
2022-12-11T01:42:44.106Z,1.50
2022-12-11T01:45:38.956Z,1.60
2022-12-11T01:48:10.351Z,1.60
2022-12-11T01:50:42.344Z,1.60
2022-12-11T01:53:13.922Z,1.50
2022-12-11T01:55:42.144Z,1.60
2022-12-11T01:58:12.187Z,1.40
2022-12-11T02:00:39.632Z,1.30
2022-12-11T02:03:07.136Z,1.40
2022-12-11T02:05:35.039Z,1.30
2022-12-11T02:08:04.397Z,1.30
2022-12-11T02:10:47.625Z,1.40
2022-12-11T02:13:25.406Z,1.30
2022-12-11T02:16:06.201Z,1.30
2022-12-11T02:18:41.925Z,1.30
2022-12-11T02:21:33.289Z,1.30
2022-12-11T02:24:18.261Z,1.40
2022-12-11T02:27:11.106Z,1.40
2022-12-11T02:29:53.002Z,1.50
2022-12-11T02:32:31.993Z,1.60
2022-12-11T02:35:09.987Z,1.50
2022-12-11T02:37:44.311Z,1.50
2022-12-11T02:40:16.788Z,1.50
2022-12-11T02:42:50.136Z,1.60
2022-12-11T02:45:26.896Z,1.70
2022-12-11T02:48:01.465Z,1.60
2022-12-11T02:50:32.520Z,1.70
2022-12-11T02:53:04.547Z,1.70
2022-12-11T02:55:39.125Z,1.50
2022-12-11T02:58:22.061Z,1.50
2022-12-11T03:00:53.753Z,1.50
2022-12-11T03:03:22.377Z,1.50
2022-12-11T03:05:49.876Z,1.50
2022-12-11T03:08:19.043Z,1.60
2022-12-11T03:10:46.906Z,1.60
2022-12-11T03:13:18.902Z,1.60
2022-12-11T03:16:05.634Z,1.50
2022-12-11T03:18:51.911Z,1.30
2022-12-11T03:21:31.130Z,1.50
2022-12-11T03:24:09.768Z,0.80
2022-12-11T03:26:43.020Z,1.40
2022-12-11T03:29:24.176Z,1.50
2022-12-11T03:32:07.161Z,1.50
2022-12-11T03:34:54.545Z,1.30
2022-12-11T03:37:27.124Z,1.20
2022-12-11T03:40:01.587Z,1.20
2022-12-11T03:42:32.122Z,1.30
2022-12-11T03:45:02.243Z,1.40
2022-12-11T03:47:32.598Z,1.30
2022-12-11T03:50:01.660Z,1.20
2022-12-11T03:52:34.992Z,1.30
2022-12-11T03:55:04.861Z,1.30
2022-12-11T03:57:36.353Z,1.20
2022-12-11T04:00:10.801Z,1.40
2022-12-11T04:02:38.241Z,1.30
2022-12-11T04:05:06.339Z,1.40
2022-12-11T04:07:34.192Z,1.40
2022-12-11T04:10:01.967Z,1.30
2022-12-11T04:12:30.435Z,1.30
2022-12-11T04:15:06.161Z,1.30
2022-12-11T04:17:51.616Z,1.30
2022-12-11T04:20:35.033Z,1.30
2022-12-11T04:23:22.372Z,1.20
2022-12-11T04:25:50.158Z,1.20
2022-12-11T04:28:17.959Z,1.10
2022-12-11T04:30:50.179Z,1.10
2022-12-11T04:33:17.997Z,1.10
2022-12-11T04:35:45.860Z,1.30
2022-12-11T04:38:16.175Z,1.10
2022-12-11T04:40:44.169Z,1.10
2022-12-11T04:43:11.581Z,1.20
2022-12-11T04:45:38.972Z,1.20
2022-12-11T04:48:06.750Z,1.30
2022-12-11T04:50:34.205Z,1.10
2022-12-11T04:53:01.632Z,1.20
2022-12-11T04:55:29.441Z,1.00
2022-12-11T04:57:56.956Z,1.10
2022-12-11T05:00:24.355Z,1.10
2022-12-11T05:02:51.893Z,1.10
2022-12-11T05:05:19.433Z,0.90
2022-12-11T05:07:47.116Z,1.00
2022-12-11T05:10:14.593Z,0.90
2022-12-11T05:12:41.987Z,1.00
2022-12-11T05:15:10.129Z,1.00
2022-12-11T05:17:37.707Z,0.90
2022-12-11T05:20:05.795Z,0.70
2022-12-11T05:22:33.303Z,0.90
2022-12-11T05:25:00.667Z,1.00
2022-12-11T05:27:28.153Z,1.00
2022-12-11T05:29:59.433Z,1.00
2022-12-11T05:32:29.758Z,1.10
2022-12-11T05:34:57.512Z,1.00
2022-12-11T05:37:24.911Z,1.00
2022-12-11T05:39:52.414Z,0.90
2022-12-11T05:42:22.879Z,0.90
2022-12-11T05:44:54.462Z,0.90
2022-12-11T05:47:22.239Z,0.90
2022-12-11T05:49:49.928Z,1.00
2022-12-11T05:52:19.799Z,0.90
2022-12-11T05:54:50.634Z,0.80
2022-12-11T05:57:18.009Z,1.00
2022-12-11T05:59:45.587Z,1.00
2022-12-11T06:02:13.324Z,1.10
2022-12-11T06:04:40.758Z,1.00
2022-12-11T06:07:08.126Z,1.00
2022-12-11T06:09:35.788Z,1.00
2022-12-11T06:12:03.329Z,0.90
2022-12-11T06:14:30.944Z,0.90
2022-12-11T06:16:58.621Z,1.00
2022-12-11T06:19:27.548Z,1.10
2022-12-11T06:21:56.741Z,0.90
2022-12-11T06:24:24.139Z,0.80
2022-12-11T06:26:51.484Z,0.90
2022-12-11T06:29:19.693Z,0.90
2022-12-11T06:31:50.768Z,1.00
2022-12-11T06:34:21.276Z,0.80
2022-12-11T06:36:51.823Z,0.90
2022-12-11T06:39:19.697Z,1.00
2022-12-11T06:41:47.978Z,1.00
2022-12-11T06:44:16.100Z,1.00
2022-12-11T06:46:44.385Z,0.90
2022-12-11T06:49:12.734Z,0.80
2022-12-11T06:51:40.568Z,1.00
2022-12-11T06:54:08.811Z,0.90
2022-12-11T06:56:36.570Z,1.00
2022-12-11T06:59:07.345Z,1.10
2022-12-11T07:01:35.135Z,1.00
2022-12-11T07:04:02.504Z,1.00
2022-12-11T07:06:30.821Z,0.80
2022-12-11T07:08:58.595Z,0.80
2022-12-11T07:11:26.408Z,0.80
2022-12-11T07:13:53.869Z,0.90
2022-12-11T07:16:21.780Z,0.90
2022-12-11T07:18:51.571Z,0.80
2022-12-11T07:21:20.729Z,0.90
2022-12-11T07:23:49.319Z,0.70
2022-12-11T07:26:19.141Z,0.70
2022-12-11T07:28:46.589Z,0.80
2022-12-11T07:31:18.429Z,1.60
2022-12-11T07:33:45.958Z,0.90
2022-12-11T07:36:14.881Z,0.80
2022-12-11T07:38:44.112Z,0.90
2022-12-11T07:41:13.929Z,0.80
2022-12-11T07:43:42.199Z,0.80
2022-12-11T07:46:16.083Z,1.00
2022-12-11T07:48:46.621Z,0.80
2022-12-11T07:51:23.432Z,0.90
2022-12-11T07:53:51.859Z,0.90
2022-12-11T07:56:21.983Z,0.80
2022-12-11T07:58:50.190Z,0.70
2022-12-11T08:01:21.884Z,0.80
2022-12-11T08:03:50.983Z,0.70
2022-12-11T08:06:21.940Z,0.70
2022-12-11T08:08:49.401Z,0.70
2022-12-11T08:11:16.867Z,0.90
2022-12-11T08:13:44.728Z,0.80
2022-12-11T08:16:14.944Z,0.70
2022-12-11T08:18:44.008Z,0.60
2022-12-11T08:21:15.443Z,0.70
2022-12-11T08:23:43.240Z,0.70
2022-12-11T08:26:15.467Z,0.70
2022-12-11T08:28:43.189Z,0.60
2022-12-11T08:31:13.123Z,0.70
2022-12-11T08:33:42.100Z,0.60
2022-12-11T08:36:12.349Z,0.60
2022-12-11T08:38:40.614Z,0.70
2022-12-11T08:41:10.467Z,0.60
2022-12-11T08:43:41.363Z,0.60
2022-12-11T08:46:12.478Z,0.60
2022-12-11T08:48:41.818Z,0.60
2022-12-11T08:51:12.802Z,0.70
2022-12-11T08:53:40.963Z,0.80
2022-12-11T08:56:12.112Z,1.00
2022-12-11T08:58:39.664Z,0.70
2022-12-11T09:01:09.512Z,0.80
2022-12-11T09:03:37.619Z,0.80
2022-12-11T09:06:06.858Z,0.90
2022-12-11T09:08:35.032Z,0.90
2022-12-11T09:11:06.334Z,0.90
2022-12-11T09:13:34.136Z,0.80
2022-12-11T09:16:04.063Z,0.70
2022-12-11T09:18:31.640Z,0.70
2022-12-11T09:21:02.868Z,0.70
2022-12-11T09:23:31.625Z,0.70
2022-12-11T09:25:59.580Z,0.80
2022-12-11T09:28:29.346Z,0.80
2022-12-11T09:30:56.750Z,0.80
2022-12-11T09:33:26.147Z,0.70
2022-12-11T09:36:01.751Z,0.60
2022-12-11T09:38:29.777Z,0.70
2022-12-11T09:40:57.333Z,0.60
2022-12-11T09:43:39.814Z,0.80
2022-12-11T09:46:12.848Z,0.70
2022-12-11T09:48:41.355Z,0.60
2022-12-11T09:51:28.740Z,0.70
2022-12-11T09:53:59.717Z,0.70
2022-12-11T09:56:48.395Z,0.60
2022-12-11T09:59:32.319Z,0.80
2022-12-11T10:02:20.509Z,0.80
2022-12-11T10:05:14.791Z,0.90
2022-12-11T10:08:03.983Z,0.80
2022-12-11T10:10:44.053Z,0.90
2022-12-11T10:13:36.945Z,0.90
2022-12-11T10:16:28.508Z,1.10
2022-12-11T10:18:56.611Z,0.80
2022-12-11T10:21:26.881Z,1.00
2022-12-11T10:23:59.631Z,1.00
2022-12-11T10:26:29.431Z,1.00
2022-12-11T10:29:01.231Z,1.10
2022-12-11T10:31:50.259Z,1.00
2022-12-11T10:34:33.920Z,0.80
2022-12-11T10:37:02.439Z,0.70
2022-12-11T10:39:30.090Z,0.90
2022-12-11T10:41:58.556Z,0.80
2022-12-11T10:44:29.605Z,0.80
2022-12-11T10:47:14.010Z,0.70
2022-12-11T10:49:58.527Z,0.70
2022-12-11T10:52:33.282Z,0.70
2022-12-11T10:55:06.248Z,0.60
2022-12-11T10:57:36.392Z,0.70
2022-12-11T11:00:07.688Z,0.70
2022-12-11T11:02:37.829Z,0.60
2022-12-11T11:05:17.524Z,0.60
2022-12-11T11:07:45.972Z,0.70
2022-12-11T11:10:18.114Z,0.70
2022-12-11T11:12:48.988Z,0.60
2022-12-11T11:15:22.543Z,0.50
2022-12-11T11:17:55.681Z,0.50
2022-12-11T11:20:28.282Z,0.40
2022-12-11T11:23:01.599Z,0.60
2022-12-11T11:25:31.627Z,0.50
2022-12-11T11:28:05.760Z,0.60
2022-12-11T11:30:39.855Z,0.50
2022-12-11T11:33:16.025Z,0.50
2022-12-11T11:35:54.052Z,0.40
2022-12-11T11:38:30.843Z,0.50
2022-12-11T11:41:17.840Z,0.50
2022-12-11T11:43:57.540Z,0.40
2022-12-11T11:46:30.887Z,0.40
2022-12-11T11:49:13.781Z,0.40
2022-12-11T11:51:50.497Z,0.40
2022-12-11T11:54:37.624Z,0.40
2022-12-11T11:57:18.128Z,0.60
2022-12-11T11:59:51.437Z,0.40
2022-12-11T12:02:19.991Z,0.40
2022-12-11T12:04:51.385Z,0.40
2022-12-11T12:07:40.347Z,0.50
2022-12-11T12:10:43.022Z,0.40
2022-12-11T12:13:51.753Z,0.40
2022-12-11T12:16:54.913Z,0.50
2022-12-11T12:19:53.426Z,0.40
2022-12-11T12:22:51.935Z,0.30
2022-12-11T12:25:39.875Z,0.50
2022-12-11T12:28:30.625Z,0.30
2022-12-11T12:31:30.189Z,0.30
2022-12-11T12:34:21.712Z,0.30
2022-12-11T12:37:01.833Z,0.20
2022-12-11T12:40:04.649Z,0.30
2022-12-11T12:43:03.361Z,0.30
2022-12-11T12:46:00.711Z,0.30
2022-12-11T12:48:29.260Z,0.30
2022-12-11T12:50:57.040Z,0.40
2022-12-11T12:53:28.863Z,0.30
2022-12-11T12:55:57.807Z,0.20
2022-12-11T12:58:42.160Z,0.30
2022-12-11T13:01:22.034Z,0.30
2022-12-11T13:03:55.354Z,0.20
2022-12-11T13:06:47.317Z,0.30
2022-12-11T13:09:19.987Z,0.30
2022-12-11T13:11:54.494Z,0.30
2022-12-11T13:14:31.791Z,0.30
2022-12-11T13:17:25.040Z,0.30
2022-12-11T13:20:10.806Z,0.30
2022-12-11T13:23:03.297Z,0.30
2022-12-11T13:25:35.231Z,0.30
2022-12-11T13:28:20.590Z,0.30
2022-12-11T13:30:58.872Z,0.30
2022-12-11T13:33:28.250Z,0.40
2022-12-11T13:36:24.920Z,0.30
2022-12-11T13:38:57.403Z,0.30
2022-12-11T13:41:27.986Z,0.30
2022-12-11T13:43:58.053Z,0.40
2022-12-11T13:46:31.672Z,0.30
2022-12-11T13:49:02.590Z,0.30
2022-12-11T13:51:32.266Z,0.40
2022-12-11T13:54:17.358Z,0.40
2022-12-11T13:57:14.157Z,0.30
2022-12-11T13:59:46.960Z,0.40
2022-12-11T14:02:27.685Z,0.30
2022-12-11T14:05:01.330Z,0.30
2022-12-11T14:07:34.829Z,0.30
2022-12-11T14:10:09.859Z,0.30
2022-12-11T14:12:38.784Z,0.30
2022-12-11T14:15:06.868Z,0.30
2022-12-11T14:17:35.664Z,0.30
2022-12-11T14:20:09.186Z,0.30
2022-12-11T14:22:42.314Z,0.30
2022-12-11T14:25:28.039Z,0.30
2022-12-11T14:27:57.020Z,0.30
2022-12-11T14:30:28.388Z,0.30
2022-12-11T14:33:00.212Z,0.30
2022-12-11T14:35:38.907Z,0.30
2022-12-11T14:38:16.913Z,0.30
2022-12-11T14:40:48.537Z,0.30
2022-12-11T14:43:29.709Z,0.40
2022-12-11T14:46:05.867Z,0.30
2022-12-11T14:48:44.792Z,0.40
2022-12-11T14:51:18.640Z,0.40
2022-12-11T14:53:51.471Z,0.30
2022-12-11T14:56:23.168Z,0.40
2022-12-11T14:58:57.229Z,0.40
2022-12-11T15:01:28.441Z,0.30
2022-12-11T15:04:28.635Z,0.30
2022-12-11T15:06:56.293Z,0.40
2022-12-11T15:09:40.907Z,0.40
2022-12-11T15:12:18.710Z,0.40
2022-12-11T15:14:53.296Z,0.40
2022-12-11T15:17:22.124Z,0.40
2022-12-11T15:19:53.601Z,0.40
2022-12-11T15:22:26.323Z,0.40
2022-12-11T15:24:55.039Z,0.50
2022-12-11T15:27:38.986Z,0.50
2022-12-11T15:30:27.241Z,0.50
2022-12-11T15:33:04.086Z,0.40
2022-12-11T15:35:31.498Z,0.50
2022-12-11T15:38:00.382Z,0.50
2022-12-11T15:40:31.905Z,0.40
2022-12-11T15:43:04.103Z,0.50
2022-12-11T15:45:32.124Z,0.50
2022-12-11T15:48:00.255Z,0.50
2022-12-11T15:50:31.812Z,0.50
2022-12-11T15:53:00.322Z,0.60
2022-12-11T15:55:34.813Z,0.60
2022-12-11T15:58:04.986Z,0.60
2022-12-11T16:00:32.597Z,0.60
2022-12-11T16:03:00.309Z,0.60
2022-12-11T16:05:28.138Z,0.50
2022-12-11T16:07:59.730Z,0.60
2022-12-11T16:10:27.763Z,0.70
2022-12-11T16:12:59.671Z,0.70
2022-12-11T16:15:29.161Z,0.70
2022-12-11T16:18:05.319Z,0.60
2022-12-11T16:20:35.708Z,0.70
2022-12-11T16:23:04.222Z,0.70
2022-12-11T16:25:33.057Z,0.70
2022-12-11T16:28:02.948Z,0.70
2022-12-11T16:30:32.528Z,0.70
2022-12-11T16:33:04.788Z,0.70
2022-12-11T16:35:38.529Z,0.70
2022-12-11T16:38:08.928Z,0.80
2022-12-11T16:40:40.078Z,0.80
2022-12-11T16:43:11.032Z,0.80
2022-12-11T16:45:42.553Z,0.80
2022-12-11T16:48:12.407Z,0.80
2022-12-11T16:50:42.002Z,0.80
2022-12-11T16:53:14.748Z,0.80
2022-12-11T16:55:43.481Z,0.80
2022-12-11T16:58:16.763Z,0.80
2022-12-11T17:00:46.997Z,0.90
2022-12-11T17:03:19.215Z,0.90
2022-12-11T17:05:51.957Z,0.90
2022-12-11T17:08:23.104Z,0.90
2022-12-11T17:10:54.801Z,0.90
2022-12-11T17:13:24.483Z,1.00
2022-12-11T17:15:54.996Z,1.00
2022-12-11T17:18:22.985Z,1.00
2022-12-11T17:20:50.525Z,1.00
2022-12-11T17:23:17.994Z,1.00
2022-12-11T17:25:46.394Z,0.90
2022-12-11T17:28:14.013Z,1.00
2022-12-11T17:30:45.310Z,1.00
2022-12-11T17:33:12.938Z,1.00
2022-12-11T17:35:40.703Z,1.00
2022-12-11T17:38:08.765Z,1.00
2022-12-11T17:40:41.226Z,1.10
2022-12-11T17:43:09.601Z,1.00
2022-12-11T17:45:42.998Z,1.10
2022-12-11T17:48:12.166Z,1.10
2022-12-11T17:50:43.720Z,1.10
2022-12-11T17:53:13.243Z,1.20
2022-12-11T17:55:42.971Z,1.20
2022-12-11T17:58:16.786Z,1.20
2022-12-11T18:00:46.697Z,1.20
2022-12-11T18:03:14.406Z,1.20
2022-12-11T18:05:44.435Z,1.30
2022-12-11T18:08:15.010Z,1.30
2022-12-11T18:10:45.481Z,1.30
2022-12-11T18:13:16.852Z,1.30
2022-12-11T18:15:44.715Z,1.30
2022-12-11T18:18:12.866Z,1.40
2022-12-11T18:20:41.689Z,1.40
2022-12-11T18:23:14.405Z,1.40
2022-12-11T18:25:47.796Z,1.40
2022-12-11T18:28:15.841Z,1.40
2022-12-11T18:30:43.260Z,1.40
2022-12-11T18:33:10.943Z,1.50
2022-12-11T18:35:38.665Z,1.50
2022-12-11T18:38:06.080Z,1.60
2022-12-11T18:40:34.607Z,1.50
2022-12-11T18:43:02.480Z,1.50
2022-12-11T18:45:30.800Z,1.50
2022-12-11T18:47:59.258Z,1.50
2022-12-11T18:50:27.171Z,1.50
2022-12-11T18:52:55.660Z,1.50
2022-12-11T18:55:23.367Z,1.60
2022-12-11T18:57:51.137Z,1.50
2022-12-11T19:00:20.017Z,1.50
2022-12-11T19:02:52.116Z,1.50
2022-12-11T19:05:19.581Z,1.50
2022-12-11T19:07:47.753Z,1.60
2022-12-11T19:10:15.687Z,1.60
2022-12-11T19:12:43.703Z,1.60
2022-12-11T19:15:12.107Z,1.60
2022-12-11T19:17:39.860Z,1.60
2022-12-11T19:20:25.403Z,1.60
2022-12-11T19:22:55.654Z,1.60
2022-12-11T19:25:23.605Z,1.60
2022-12-11T19:27:51.128Z,1.60
2022-12-11T19:30:18.611Z,1.70
2022-12-11T19:32:46.028Z,1.70
2022-12-11T19:35:15.248Z,1.70
2022-12-11T19:37:43.530Z,1.70
2022-12-11T19:40:11.361Z,1.70
2022-12-11T19:42:38.998Z,1.70
2022-12-11T19:45:08.344Z,1.70
2022-12-11T19:47:35.726Z,1.70
2022-12-11T19:50:06.787Z,1.70
2022-12-11T19:52:34.467Z,1.70
2022-12-11T19:55:05.810Z,1.70
2022-12-11T19:57:34.338Z,1.70
2022-12-11T20:00:02.343Z,1.70
2022-12-11T20:02:32.675Z,1.70
2022-12-11T20:05:00.239Z,1.70
2022-12-11T20:07:30.771Z,1.60
2022-12-11T20:10:00.655Z,1.60
2022-12-11T20:12:28.681Z,1.60
2022-12-11T20:14:56.272Z,1.60
2022-12-11T20:17:24.432Z,1.60
2022-12-11T20:19:52.424Z,1.70
2022-12-11T20:22:19.943Z,1.70
2022-12-11T20:24:50.564Z,1.70
2022-12-11T20:27:18.548Z,1.70
2022-12-11T20:29:46.136Z,1.70
2022-12-11T20:32:13.780Z,1.70
2022-12-11T20:34:41.446Z,1.70
2022-12-11T20:37:08.970Z,1.70
2022-12-11T20:39:37.306Z,1.70
2022-12-11T20:42:05.152Z,1.80
2022-12-11T20:44:33.141Z,1.80
2022-12-11T20:47:00.573Z,1.80
2022-12-11T20:49:28.036Z,1.80
2022-12-11T20:51:55.568Z,1.80
2022-12-11T20:54:23.065Z,1.80
2022-12-11T20:56:50.505Z,1.80
2022-12-11T20:59:18.212Z,1.80
2022-12-11T21:01:46.947Z,1.80
2022-12-11T21:04:14.522Z,1.90
2022-12-11T21:06:42.320Z,1.90
2022-12-11T21:09:14.933Z,1.90
2022-12-11T21:11:42.341Z,1.90
2022-12-11T21:14:10.442Z,1.90
2022-12-11T21:16:38.242Z,1.90
2022-12-11T21:19:06.338Z,1.90
2022-12-11T21:21:36.942Z,2.00
2022-12-11T21:24:04.836Z,2.00
2022-12-11T21:26:32.573Z,2.00
2022-12-11T21:29:00.132Z,2.00
2022-12-11T21:31:28.168Z,2.00
2022-12-11T21:33:55.712Z,2.10
2022-12-11T21:36:23.345Z,2.10
2022-12-11T21:38:51.866Z,2.10
2022-12-11T21:41:22.341Z,2.10
2022-12-11T21:44:56.588Z,2.10
2022-12-11T21:46:39.792Z,2.10
2022-12-11T21:49:08.900Z,2.20
2022-12-11T21:51:44.028Z,2.20
2022-12-11T21:54:17.508Z,2.20
2022-12-11T21:56:46.976Z,2.20
2022-12-11T21:59:14.888Z,2.30
2022-12-11T22:01:46.795Z,2.20
2022-12-11T22:04:16.892Z,2.30
2022-12-11T22:06:47.225Z,2.30
2022-12-11T22:09:16.842Z,2.30
2022-12-11T22:11:45.798Z,2.30
2022-12-11T22:14:14.996Z,2.40
2022-12-11T22:16:44.392Z,2.40
2022-12-11T22:19:12.199Z,2.40
2022-12-11T22:21:40.186Z,2.40
2022-12-11T22:24:07.895Z,2.40
2022-12-11T22:26:35.445Z,2.50
2022-12-11T22:29:03.112Z,2.40
2022-12-11T22:31:30.608Z,2.50
2022-12-11T22:33:58.294Z,2.50
2022-12-11T22:36:27.192Z,2.50
2022-12-11T22:38:55.132Z,2.50
2022-12-11T22:41:27.615Z,2.50
2022-12-11T22:43:56.842Z,2.50
2022-12-11T22:46:28.034Z,2.50
2022-12-11T22:48:56.375Z,2.50
2022-12-11T22:51:23.876Z,2.50
2022-12-11T22:53:51.299Z,2.50
2022-12-11T22:56:18.656Z,2.50
2022-12-11T22:58:46.081Z,2.60
2022-12-11T23:01:18.191Z,2.60
2022-12-11T23:03:46.239Z,2.70
2022-12-11T23:06:17.292Z,2.60
2022-12-11T23:08:45.578Z,2.70
2022-12-11T23:11:16.531Z,2.70
2022-12-11T23:13:44.103Z,2.80
2022-12-11T23:16:12.509Z,2.80
2022-12-11T23:18:40.105Z,2.90
2022-12-11T23:21:08.642Z,2.90
2022-12-11T23:23:36.985Z,3.00
2022-12-11T23:26:06.073Z,3.00
2022-12-11T23:28:33.397Z,3.00
2022-12-11T23:31:01.451Z,2.90
2022-12-11T23:33:28.827Z,2.90
2022-12-11T23:35:56.316Z,3.00
2022-12-11T23:38:23.816Z,3.10
2022-12-11T23:40:51.506Z,3.10
2022-12-11T23:43:18.931Z,3.10
2022-12-11T23:45:47.027Z,3.30
2022-12-11T23:48:14.606Z,3.30
2022-12-11T23:50:43.323Z,3.40
2022-12-11T23:53:11.833Z,3.40
2022-12-11T23:55:41.745Z,3.50
2022-12-11T23:58:10.881Z,3.60
